Time;durP1;ratioP1;P1;durP2;ratioP2;P2;SDS_P1;SDS_P2;PMS_P1;PMS_P2;Temp;Humidity;BMP_temperature;BMP_pressure;BME280_temperature;BME280_humidity;BME280_pressure;Samples;Min_cycle;Max_cycle;Signal;HPM_P1;HPM_P2
2023/05/10 00:02:14;;;;;;;;;24.00;22.20;;;;;12.04;45.96;99072.03;5975534;29;96805;-60
2023/05/10 00:05:19;;;;;;;;;19.00;18.00;;;;;12.03;45.77;99064.97;5974447;29;96505;-60
2023/05/10 00:08:22;;;;;;;;;17.80;16.60;;;;;11.83;46.31;99037.34;5976784;29;96782;-60
2023/05/10 00:11:26;;;;;;;;;18.40;17.40;;;;;12.01;45.75;99053.56;5976803;29;96276;-60
2023/05/10 00:14:29;;;;;;;;;15.00;15.00;;;;;12.04;45.96;99060.38;5976222;29;97465;-60
2023/05/10 00:17:33;;;;;;;;;20.40;19.40;;;;;12.01;45.99;99058.16;5975218;29;96362;-60
2023/05/10 00:20:37;;;;;;;;;21.20;20.00;;;;;12.01;46.01;99060.84;5974120;29;96947;-60
2023/05/10 00:23:41;;;;;;;;;18.00;17.00;;;;;11.96;46.00;99066.09;5975661;29;96684;-60
2023/05/10 00:26:44;;;;;;;;;16.80;16.00;;;;;11.92;46.37;99060.34;5976222;29;97500;-60
2023/05/10 00:29:48;;;;;;;;;18.25;17.25;;;;;11.87;46.43;99054.78;5974481;29;97068;-60
2023/05/10 00:32:51;;;;;;;;;19.40;18.00;;;;;11.88;46.50;99055.56;5975284;29;97050;-60
2023/05/10 00:35:56;;;;;;;;;19.40;18.40;;;;;11.85;46.63;99045.25;5983894;29;97019;-60
2023/05/10 00:38:59;;;;;;;;;17.60;16.60;;;;;11.85;46.28;99056.88;5966015;29;96291;-60
2023/05/10 00:42:04;;;;;;;;;18.60;18.00;;;;;11.89;46.19;99044.56;5975908;29;96377;-60
2023/05/10 00:45:08;;;;;;;;;16.67;16.67;;;;;11.84;46.15;99048.97;5974807;29;96499;-60
2023/05/10 00:48:12;;;;;;;;;20.00;17.50;;;;;11.78;45.86;99047.22;5975491;29;96272;-60
2023/05/10 00:51:17;;;;;;;;;15.00;14.75;;;;;11.74;46.07;99046.81;5989883;29;96425;-60
2023/05/10 00:54:21;;;;;;;;;16.60;15.60;;;;;11.76;45.81;99044.72;5974890;29;96242;-60
2023/05/10 00:57:25;;;;;;;;;14.60;13.60;;;;;11.75;45.98;99043.06;5990022;29;97105;-60
2023/05/10 01:00:29;;;;;;;;;15.60;15.60;;;;;11.70;46.07;99046.41;5975595;29;96525;-60
2023/05/10 01:03:33;;;;;;;;;20.00;19.00;;;;;11.65;46.14;99040.03;5975378;29;96372;-60
2023/05/10 01:06:38;;;;;;;;;14.20;13.60;;;;;11.60;46.35;99040.72;5969130;29;96816;-60
2023/05/10 01:09:41;;;;;;;;;16.00;16.00;;;;;11.57;46.52;99038.47;5975361;29;96269;-60
2023/05/10 01:12:48;;;;;;;;;18.25;17.00;;;;;11.51;46.56;99039.34;5974116;29;96738;-60
2023/05/10 01:15:51;;;;;;;;;19.60;18.60;;;;;11.44;46.83;99035.88;5974214;29;96440;-60
2023/05/10 01:18:55;;;;;;;;;19.00;18.60;;;;;11.35;47.03;99025.59;5974759;29;96910;-60
2023/05/10 01:22:14;;;;;;;;;16.00;16.00;;;;;11.33;47.67;99025.84;5955416;29;96767;-60
2023/05/10 01:25:35;;;;;;;;;16.25;16.00;;;;;11.32;47.34;99026.88;5952748;29;96642;-60
2023/05/10 01:28:59;;;;;;;;;17.00;16.75;;;;;11.40;47.22;99036.56;5974793;29;96415;-60
2023/05/10 01:32:30;;;;;;;;;18.00;15.00;;;;;11.35;47.02;99033.69;5974458;29;96880;-60
2023/05/10 01:35:41;;;;;;;;;17.00;15.00;;;;;11.30;47.03;99028.97;5971868;29;96815;-60
2023/05/10 01:38:51;;;;;;;;;16.00;14.00;;;;;11.26;47.33;99033.16;5969119;29;97423;-60
2023/05/10 01:42:02;;;;;;;;;19.00;17.00;;;;;11.19;47.25;99022.44;5967963;29;96487;-60
2023/05/10 01:45:15;;;;;;;;;18.00;16.00;;;;;11.16;47.57;99028.28;5974209;29;96630;-60
2023/05/10 01:48:21;;;;;;;;;16.00;15.60;;;;;11.11;47.76;99025.41;5974246;29;96238;-60
2023/05/10 01:51:28;;;;;;;;;19.40;17.40;;;;;11.16;47.32;99013.97;5974768;29;96971;-60
2023/05/10 01:54:34;;;;;;;;;21.00;20.00;;;;;11.13;47.45;99017.94;5975295;29;96504;-60
2023/05/10 01:57:40;;;;;;;;;21.00;20.00;;;;;11.10;47.16;99012.13;5973444;29;96400;-60
2023/05/10 02:00:45;;;;;;;;;19.80;18.20;;;;;11.03;47.12;98993.34;5971588;29;96874;-60
2023/05/10 02:03:52;;;;;;;;;21.80;19.00;;;;;11.14;47.49;99010.69;5974138;29;97092;-60
2023/05/10 02:06:57;;;;;;;;;21.00;19.50;;;;;11.09;47.39;99010.50;5988197;29;96499;-60
2023/05/10 02:10:02;;;;;;;;;20.33;19.33;;;;;11.01;47.56;99008.06;5973105;29;96333;-60
2023/05/10 02:13:08;;;;;;;;;21.00;20.00;;;;;10.94;47.62;98993.84;5965678;29;96503;-60
2023/05/10 02:16:14;;;;;;;;;18.60;18.20;;;;;10.96;47.86;98995.25;5988130;29;96629;-60
2023/05/10 02:19:21;;;;;;;;;18.25;17.00;;;;;10.96;47.84;98994.44;5973324;29;96460;-60
2023/05/10 02:22:26;;;;;;;;;18.00;18.00;;;;;10.95;47.99;98990.91;5974341;29;96349;-60
2023/05/10 02:25:31;;;;;;;;;20.40;20.40;;;;;10.97;47.96;98988.00;5973262;29;96543;-60
2023/05/10 02:28:37;;;;;;;;;21.00;19.40;;;;;10.98;47.87;98993.19;5973478;29;98096;-60
2023/05/10 02:31:43;;;;;;;;;20.60;19.20;;;;;10.98;47.93;98992.34;5973935;29;96477;-60
2023/05/10 02:34:51;;;;;;;;;20.60;18.20;;;;;11.01;47.79;98987.31;5973856;29;96369;-60
2023/05/10 02:37:57;;;;;;;;;21.25;19.00;;;;;11.00;47.71;98982.16;5973670;29;96423;-60
2023/05/10 02:41:01;;;;;;;;;17.00;16.00;;;;;11.00;47.71;98990.22;5971057;29;96628;-60
2023/05/10 02:44:07;;;;;;;;;19.60;18.00;;;;;10.98;47.79;98989.66;5965366;29;96288;-60
2023/05/10 02:47:12;;;;;;;;;17.60;16.00;;;;;10.95;47.75;98984.69;5972985;29;96407;-60
2023/05/10 02:50:18;;;;;;;;;16.60;16.20;;;;;10.93;47.72;98993.00;5971758;29;96464;-60
2023/05/10 02:53:32;;;;;;;;;17.80;16.80;;;;;10.95;47.71;98995.47;5968469;29;96202;-60
2023/05/10 02:56:41;;;;;;;;;15.00;15.00;;;;;10.79;47.88;98984.22;5974072;29;96996;-60
2023/05/10 02:59:45;;;;;;;;;17.00;15.75;;;;;10.82;48.04;98993.72;5973052;29;96442;-60
2023/05/10 03:02:48;;;;;;;;;14.25;13.25;;;;;10.75;47.93;98992.97;5971611;29;96732;-60
2023/05/10 03:05:55;;;;;;;;;13.75;13.75;;;;;10.72;48.35;98990.69;5987097;29;96824;-60
2023/05/10 03:09:00;;;;;;;;;14.40;13.00;;;;;10.72;48.47;98990.69;5965210;29;96548;-60
2023/05/10 03:12:12;;;;;;;;;13.67;12.67;;;;;10.75;48.57;98988.38;5949254;29;97421;-60
2023/05/10 03:15:25;;;;;;;;;12.60;11.00;;;;;10.73;48.54;98990.50;5956634;29;96325;-60
2023/05/10 03:18:34;;;;;;;;;12.00;11.60;;;;;10.72;48.72;98990.69;5989625;29;97030;-60
2023/05/10 03:21:44;;;;;;;;;13.60;13.60;;;;;10.64;48.91;98991.81;5977649;29;96821;-60
2023/05/10 03:24:50;;;;;;;;;12.00;11.00;;;;;10.61;48.66;98994.91;5976732;29;97436;-60
2023/05/10 03:27:54;;;;;;;;;12.20;11.00;;;;;10.63;48.79;98998.25;5991595;29;96195;-60
2023/05/10 03:31:01;;;;;;;;;16.00;15.00;;;;;10.68;48.72;98993.00;5991077;29;96591;-60
2023/05/10 03:34:06;;;;;;;;;13.60;13.00;;;;;10.69;48.77;98983.88;5977709;29;96510;-60
2023/05/10 03:37:10;;;;;;;;;11.20;10.20;;;;;10.70;48.78;98992.81;5954037;29;96358;-60
2023/05/10 03:40:14;;;;;;;;;13.00;12.00;;;;;10.68;49.00;98987.63;5963720;29;96305;-60
2023/05/10 03:43:19;;;;;;;;;13.00;12.00;;;;;10.64;48.71;98974.81;5972247;29;96511;-60
2023/05/10 03:46:22;;;;;;;;;14.00;14.00;;;;;10.77;48.71;98986.31;5981191;29;96611;-60
2023/05/10 03:49:26;;;;;;;;;12.80;11.20;;;;;10.79;48.59;98991.47;5974257;29;97630;-60
2023/05/10 03:52:31;;;;;;;;;15.60;13.60;;;;;10.86;48.45;98986.84;5974595;29;96418;-60
2023/05/10 03:55:36;;;;;;;;;13.80;13.40;;;;;10.95;48.40;98988.22;5980503;29;96971;-60
2023/05/10 03:58:39;;;;;;;;;10.20;9.20;;;;;11.00;48.42;98985.66;5963582;29;96434;-60
2023/05/10 04:01:42;;;;;;;;;11.80;11.80;;;;;11.09;48.24;98989.72;5969616;29;97365;-60
2023/05/10 04:04:46;;;;;;;;;12.00;11.00;;;;;11.17;47.93;98985.94;5990336;29;96238;-60
2023/05/10 04:07:50;;;;;;;;;11.40;11.00;;;;;11.25;47.70;98994.56;5988024;29;96410;-60
2023/05/10 04:10:54;;;;;;;;;11.75;11.75;;;;;11.40;47.48;99001.47;5975401;29;96287;-60
2023/05/10 04:13:57;;;;;;;;;10.00;10.00;;;;;11.52;48.41;99002.38;5976326;29;96697;-60
2023/05/10 04:17:01;;;;;;;;;12.00;11.00;;;;;11.69;47.06;98996.13;5976189;29;96403;-60
2023/05/10 04:20:06;;;;;;;;;14.20;13.00;;;;;11.77;46.81;99002.34;5975084;29;96346;-60
2023/05/10 04:23:11;;;;;;;;;13.60;12.00;;;;;11.83;46.25;99002.22;5975540;29;96330;-60
2023/05/10 04:26:14;;;;;;;;;12.50;12.00;;;;;11.97;46.22;99008.31;5958046;29;98431;-60
2023/05/10 04:29:18;;;;;;;;;13.00;11.00;;;;;12.02;46.11;99005.75;5979791;29;96562;-60
2023/05/10 04:32:21;;;;;;;;;13.20;13.00;;;;;12.09;45.99;99001.91;5990197;29;96628;-60
2023/05/10 04:35:24;;;;;;;;;12.75;11.00;;;;;12.06;45.75;98998.84;5985534;29;97146;-60
2023/05/10 04:38:29;;;;;;;;;13.00;12.00;;;;;11.98;46.21;98999.97;5966020;29;96219;-60
2023/05/10 04:41:32;;;;;;;;;11.00;11.00;;;;;12.18;45.75;99001.56;5958379;29;96265;-60
2023/05/10 04:44:36;;;;;;;;;13.00;12.00;;;;;12.32;45.97;98997.63;5974150;29;96311;-60
2023/05/10 04:47:39;;;;;;;;;12.00;10.40;;;;;12.28;45.65;98999.97;5976210;29;97066;-59
2023/05/10 04:50:42;;;;;;;;;9.00;8.40;;;;;12.29;45.77;98998.91;5990722;29;96132;-59
2023/05/10 04:53:47;;;;;;;;;10.00;9.00;;;;;12.27;45.88;99000.19;5990829;29;96942;-59
2023/05/10 04:57:07;;;;;;;;;15.00;13.00;;;;;12.42;45.76;99006.00;5990856;29;96316;-59
2023/05/10 05:00:11;;;;;;;;;9.20;9.00;;;;;12.63;45.46;98991.97;5991728;29;96939;-59
2023/05/10 05:03:14;;;;;;;;;11.00;11.00;;;;;12.82;45.28;98993.50;5990391;29;96284;-59
2023/05/10 05:06:18;;;;;;;;;11.00;9.00;;;;;12.89;45.22;98991.53;5990560;29;96254;-60
2023/05/10 05:09:23;;;;;;;;;11.00;10.00;;;;;13.03;45.36;98992.97;5990808;29;96653;-59
2023/05/10 05:12:26;;;;;;;;;10.00;9.25;;;;;13.27;44.99;98990.28;5990333;29;96325;-59
2023/05/10 05:15:30;;;;;;;;;13.80;12.00;;;;;13.52;44.62;98992.72;5991250;29;96578;-60
2023/05/10 05:18:33;;;;;;;;;11.50;10.00;;;;;13.70;44.32;98990.69;5988741;29;96587;-59
2023/05/10 05:21:37;;;;;;;;;11.40;10.00;;;;;13.83;43.52;98984.97;5985635;29;96628;-59
2023/05/10 05:24:42;;;;;;;;;10.00;9.20;;;;;13.91;43.85;98991.09;5991471;29;96605;-59
2023/05/10 05:27:45;;;;;;;;;12.00;11.50;;;;;14.10;43.78;98977.13;5990206;29;96433;-59
2023/05/10 05:30:48;;;;;;;;;11.00;11.00;;;;;14.26;43.84;98989.06;5989878;29;96541;-59
2023/05/10 05:33:51;;;;;;;;;10.20;9.00;;;;;14.39;42.75;98985.25;5991853;29;96252;-59
2023/05/10 05:36:55;;;;;;;;;10.80;10.00;;;;;14.43;42.62;98987.25;5991929;29;97442;-60
2023/05/10 05:40:01;;;;;;;;;11.75;11.75;;;;;14.66;43.19;98976.25;5991375;29;96274;-59
2023/05/10 05:43:05;;;;;;;;;11.40;11.40;;;;;14.90;42.98;98981.53;5991185;29;96323;-60
2023/05/10 05:46:08;;;;;;;;;11.00;9.50;;;;;15.04;42.64;98983.66;5990403;29;96448;-59
2023/05/10 05:49:12;;;;;;;;;9.00;9.00;;;;;15.24;42.51;98993.19;5990789;29;96637;-59
2023/05/10 05:52:15;;;;;;;;;11.40;10.40;;;;;15.44;42.36;98983.41;5992218;29;96790;-59
2023/05/10 05:55:21;;;;;;;;;12.00;11.00;;;;;15.65;41.80;98991.88;5992784;29;96284;-59
2023/05/10 05:58:25;;;;;;;;;11.60;10.60;;;;;15.87;42.01;98987.28;5992888;29;96367;-59
2023/05/10 06:01:28;;;;;;;;;12.00;11.00;;;;;16.04;41.18;98988.03;5994421;29;96468;-59
2023/05/10 06:04:31;;;;;;;;;13.00;11.00;;;;;16.23;40.93;98992.03;5993555;29;96485;-59
2023/05/10 06:07:34;;;;;;;;;13.00;12.00;;;;;16.29;40.05;98991.03;5993076;29;97097;-59
2023/05/10 06:10:39;;;;;;;;;12.60;12.40;;;;;16.40;40.23;98989.22;5992369;29;96229;-59
2023/05/10 06:13:42;;;;;;;;;11.20;9.20;;;;;16.43;40.50;98991.44;5991897;29;96322;-59
2023/05/10 06:16:46;;;;;;;;;11.75;11.00;;;;;16.61;40.49;98999.28;5992908;29;96335;-59
2023/05/10 06:19:49;;;;;;;;;9.50;9.50;;;;;16.83;40.41;98996.47;5993947;29;96487;-59
2023/05/10 06:22:53;;;;;;;;;10.75;10.75;;;;;16.99;40.03;98984.63;5993770;29;96893;-60
2023/05/10 06:25:57;;;;;;;;;11.25;10.25;;;;;17.19;39.69;98997.56;5992914;29;96660;-59
2023/05/10 06:29:01;;;;;;;;;9.00;9.00;;;;;17.33;39.78;98996.84;5993324;29;96338;-59
2023/05/10 06:32:04;;;;;;;;;11.00;10.00;;;;;17.53;39.24;98987.97;5991888;29;96683;-59
2023/05/10 06:35:09;;;;;;;;;9.00;8.00;;;;;17.60;38.90;98985.84;5992956;29;96632;-59
2023/05/10 06:38:12;;;;;;;;;9.75;8.75;;;;;17.72;39.15;98991.09;5993960;29;96302;-59
2023/05/10 06:41:17;;;;;;;;;9.00;9.00;;;;;17.92;38.92;98993.94;5993090;29;96267;-59
2023/05/10 06:44:20;;;;;;;;;11.40;10.40;;;;;17.88;38.19;98990.09;5994739;29;96438;-59
2023/05/10 06:47:23;;;;;;;;;11.00;9.50;;;;;18.14;39.30;98989.06;5994578;29;96289;-59
2023/05/10 06:50:27;;;;;;;;;13.00;12.00;;;;;18.43;39.63;98985.88;5993005;29;96248;-59
2023/05/10 06:53:30;;;;;;;;;10.67;10.00;;;;;18.30;37.52;98967.28;5987006;29;96365;-59
2023/05/10 06:56:35;;;;;;;;;10.75;9.00;;;;;18.68;38.17;98994.13;5987781;29;96352;-59
2023/05/10 06:59:38;;;;;;;;;8.00;8.00;;;;;18.95;37.65;98991.16;5987929;29;96249;-59
2023/05/10 07:02:42;;;;;;;;;8.20;8.20;;;;;19.22;37.81;98985.38;6005886;29;96229;-59
2023/05/10 07:05:45;;;;;;;;;9.00;9.00;;;;;19.55;37.54;98984.00;6013414;29;96559;-59
2023/05/10 07:08:48;;;;;;;;;10.00;10.00;;;;;19.75;36.80;98984.72;5987248;29;96542;-59
2023/05/10 07:11:53;;;;;;;;;9.40;8.40;;;;;20.05;35.86;98991.19;5987829;29;96276;-59
2023/05/10 07:14:56;;;;;;;;;8.20;8.20;;;;;20.13;35.61;98985.16;5988297;29;96297;-59
2023/05/10 07:17:59;;;;;;;;;9.00;8.60;;;;;20.20;35.39;98985.63;5987293;29;96332;-59
2023/05/10 07:21:03;;;;;;;;;9.00;7.00;;;;;20.39;35.97;98986.66;5987483;29;98525;-59
2023/05/10 07:24:07;;;;;;;;;8.00;7.80;;;;;20.65;34.46;98993.63;5988156;29;96268;-59
2023/05/10 07:27:12;;;;;;;;;8.80;7.80;;;;;20.89;35.49;98992.88;5988749;29;96501;-59
2023/05/10 07:30:16;;;;;;;;;7.20;6.60;;;;;20.80;34.12;98989.13;5988492;29;96299;-59
2023/05/10 07:33:19;;;;;;;;;7.00;7.00;;;;;20.84;34.99;98988.28;5988588;29;96908;-59
2023/05/10 07:36:23;;;;;;;;;8.00;7.00;;;;;21.01;35.12;98980.44;5989439;29;96410;-59
2023/05/10 07:39:27;;;;;;;;;9.40;9.40;;;;;21.37;34.92;98977.41;5989447;29;96246;-59
2023/05/10 07:42:32;;;;;;;;;8.40;8.00;;;;;21.72;34.22;98977.03;5972289;29;96378;-59
2023/05/10 07:45:35;;;;;;;;;8.40;7.80;;;;;22.07;33.73;98983.22;5984747;29;96672;-59
2023/05/10 07:48:39;;;;;;;;;8.00;7.00;;;;;22.16;32.60;98973.22;5988457;29;96311;-59
2023/05/10 07:51:42;;;;;;;;;8.00;8.00;;;;;21.90;32.95;98969.94;5987776;29;96220;-59
2023/05/10 07:54:46;;;;;;;;;8.75;8.00;;;;;22.18;33.59;98971.81;5987146;29;96520;-59
2023/05/10 07:57:51;;;;;;;;;5.60;5.60;;;;;22.50;33.72;98970.25;5987520;29;96289;-59
2023/05/10 08:00:54;;;;;;;;;8.00;8.00;;;;;22.62;31.58;98962.38;5986512;29;96757;-58
2023/05/10 08:03:57;;;;;;;;;6.80;6.00;;;;;22.98;32.34;98957.97;5988275;29;96329;-59
2023/05/10 08:07:01;;;;;;;;;8.60;8.00;;;;;23.35;33.06;98956.22;5993818;29;96289;-59
2023/05/10 08:10:05;;;;;;;;;7.60;7.00;;;;;23.74;31.60;98959.34;6004985;29;96345;-59
2023/05/10 08:13:10;;;;;;;;;6.75;6.00;;;;;24.06;31.37;98955.63;5995968;29;96602;-59
2023/05/10 08:16:13;;;;;;;;;6.60;6.00;;;;;23.99;29.96;98961.59;5989566;29;96688;-59
2023/05/10 08:19:18;;;;;;;;;7.00;6.80;;;;;24.19;29.84;98954.81;5991413;29;96341;-59
2023/05/10 08:22:22;;;;;;;;;6.00;5.80;;;;;24.28;28.94;98946.66;5991700;29;96335;-59
2023/05/10 08:25:25;;;;;;;;;6.75;6.75;;;;;24.39;27.79;98951.63;5990284;29;96481;-59
2023/05/10 08:28:30;;;;;;;;;5.00;5.00;;;;;24.25;25.07;98956.34;5989717;29;96423;-59
2023/05/10 08:31:34;;;;;;;;;5.00;5.00;;;;;24.02;26.48;98949.13;5989288;29;96273;-59
2023/05/10 08:34:37;;;;;;;;;5.00;5.00;;;;;24.17;27.53;98946.88;5990262;29;96478;-59
2023/05/10 08:37:40;;;;;;;;;5.00;5.00;;;;;24.49;26.02;98956.91;5991223;29;96379;-60
2023/05/10 08:40:45;;;;;;;;;5.40;4.40;;;;;24.28;25.60;98957.69;5992005;29;96343;-59
2023/05/10 08:43:51;;;;;;;;;4.00;4.00;;;;;24.11;24.90;98944.50;5992015;29;96266;-59
2023/05/10 08:46:55;;;;;;;;;5.00;4.00;;;;;24.29;25.06;98940.81;5991920;29;96728;-60
2023/05/10 08:50:00;;;;;;;;;4.00;4.00;;;;;24.38;23.90;98943.69;5991474;29;96715;-59
2023/05/10 08:53:07;;;;;;;;;4.50;4.50;;;;;24.52;23.56;98934.25;5990442;29;96313;-60
2023/05/10 08:56:10;;;;;;;;;4.00;4.00;;;;;24.37;23.99;98958.56;5992897;29;96300;-59
2023/05/10 08:59:15;;;;;;;;;4.00;3.80;;;;;24.34;23.28;98956.41;6006255;29;96345;-59
2023/05/10 09:02:21;;;;;;;;;4.00;4.00;;;;;24.66;24.93;98945.22;5992279;29;96107;-59
2023/05/10 09:05:24;;;;;;;;;6.00;5.00;;;;;24.54;24.40;98945.75;5986169;29;96276;-61
2023/05/10 09:08:28;;;;;;;;;5.00;5.00;;;;;24.75;23.57;98945.28;5975921;29;96204;-61
2023/05/10 09:11:31;;;;;;;;;5.60;5.00;;;;;24.53;22.88;98960.66;5975817;29;96314;-61
2023/05/10 09:14:37;;;;;;;;;5.00;5.00;;;;;24.23;24.03;98942.09;5975551;29;96875;-61
2023/05/10 09:17:42;;;;;;;;;6.00;5.00;;;;;24.74;25.19;98943.63;5985172;29;96284;-61
2023/05/10 09:20:45;;;;;;;;;4.00;3.50;;;;;24.97;23.48;98951.63;5975791;29;96143;-61
2023/05/10 09:23:49;;;;;;;;;4.60;4.00;;;;;24.82;22.63;98951.19;5973679;29;100420;-61
2023/05/10 09:26:53;;;;;;;;;4.00;4.00;;;;;24.71;23.25;98952.53;5974390;29;97128;-61
2023/05/10 09:29:58;;;;;;;;;4.00;4.00;;;;;25.04;23.03;98951.19;5974609;29;96509;-61
2023/05/10 09:33:01;;;;;;;;;3.00;3.00;;;;;25.25;23.89;98938.50;5974402;29;96956;-61
2023/05/10 09:36:08;;;;;;;;;5.00;4.00;;;;;25.12;22.47;98950.41;5974696;29;96971;-61
2023/05/10 09:39:12;;;;;;;;;4.00;4.00;;;;;24.33;21.95;98952.06;5972479;29;96555;-61
2023/05/10 09:42:19;;;;;;;;;4.00;4.00;;;;;24.65;22.14;98943.56;5974646;29;96414;-61
2023/05/10 09:45:25;;;;;;;;;5.00;5.00;;;;;24.63;23.13;98947.78;5974119;29;96313;-61
2023/05/10 09:48:29;;;;;;;;;5.00;4.00;;;;;24.98;23.24;98936.69;5974482;29;96632;-61
2023/05/10 09:51:32;;;;;;;;;3.00;3.00;;;;;25.11;22.25;98942.47;5975799;29;96548;-61
2023/05/10 09:54:38;;;;;;;;;4.00;3.00;;;;;25.54;21.18;98937.16;5973683;29;98340;-61
2023/05/10 09:57:42;;;;;;;;;4.60;4.60;;;;;25.63;21.78;98944.38;5975184;29;96276;-61
2023/05/10 10:00:51;;;;;;;;;4.00;3.00;;;;;25.68;20.26;98926.84;5975491;29;96692;-61
2023/05/10 10:03:57;;;;;;;;;3.20;3.20;;;;;25.81;20.04;98939.72;5958583;29;96783;-61
2023/05/10 10:07:02;;;;;;;;;5.00;4.50;;;;;25.90;20.51;98918.47;5975075;29;96301;-61
2023/05/10 10:10:11;;;;;;;;;4.75;4.00;;;;;25.94;19.86;98925.00;5975181;29;96940;-61
2023/05/10 10:13:15;;;;;;;;;4.00;3.00;;;;;26.24;20.35;98917.75;5975265;29;96918;-61
2023/05/10 10:16:20;;;;;;;;;3.75;3.00;;;;;26.55;19.90;98923.13;5974872;29;96303;-61
2023/05/10 10:19:24;;;;;;;;;3.60;3.60;;;;;26.09;20.34;98913.47;5975000;29;96326;-61
2023/05/10 10:22:27;;;;;;;;;4.00;4.00;;;;;25.83;19.25;98918.13;5975395;29;96574;-61
2023/05/10 10:25:30;;;;;;;;;4.00;4.00;;;;;26.35;21.79;98915.47;5977181;29;96502;-61
2023/05/10 10:28:41;;;;;;;;;5.00;4.00;;;;;26.84;20.46;98903.06;5997620;29;96990;-61
2023/05/10 10:31:57;;;;;;;;;3.00;3.00;;;;;26.94;19.82;98895.28;5997534;29;96317;-61
2023/05/10 10:35:01;;;;;;;;;5.00;5.00;;;;;26.59;19.20;98902.78;5997529;29;96382;-61
2023/05/10 10:38:04;;;;;;;;;4.40;4.40;;;;;26.79;20.13;98895.75;5996901;29;96263;-61
2023/05/10 10:41:12;;;;;;;;;4.00;3.40;;;;;27.06;20.85;98897.38;5997553;29;96931;-61
2023/05/10 10:44:26;;;;;;;;;4.40;3.40;;;;;27.28;21.64;98891.59;5997686;29;96891;-61
2023/05/10 10:47:32;;;;;;;;;5.00;4.60;;;;;26.46;19.43;98900.19;5997387;29;96142;-61
2023/05/10 10:50:45;;;;;;;;;6.00;6.00;;;;;26.64;19.94;98888.78;5992601;29;96432;-61
2023/05/10 10:53:49;;;;;;;;;4.00;4.00;;;;;26.76;20.02;98888.13;5973534;29;96265;-61
2023/05/10 10:57:13;;;;;;;;;3.75;3.75;;;;;25.92;18.38;98883.06;5973862;29;96745;-61
2023/05/10 11:00:28;;;;;;;;;3.40;3.40;;;;;26.21;20.14;98882.44;5988619;29;96263;-61
2023/05/10 11:03:33;;;;;;;;;5.00;5.00;;;;;26.99;20.42;98883.22;5974036;29;96243;-61
2023/05/10 11:06:36;;;;;;;;;3.60;3.00;;;;;27.77;19.61;98872.66;5972796;29;96474;-61
2023/05/10 11:09:41;;;;;;;;;4.60;3.60;;;;;28.36;19.95;98878.94;5973979;29;96333;-61
2023/05/10 11:12:52;;;;;;;;;3.75;3.00;;;;;28.05;18.37;98879.34;5973567;29;96299;-61
2023/05/10 11:15:57;;;;;;;;;5.40;5.40;;;;;27.98;18.86;98879.06;5973502;29;96537;-61
2023/05/10 11:19:04;;;;;;;;;3.75;3.75;;;;;27.66;18.42;98877.75;5971599;29;97315;-61
2023/05/10 11:22:14;;;;;;;;;4.40;4.00;;;;;26.64;18.72;98861.13;5987074;29;96321;-61
2023/05/10 11:25:17;;;;;;;;;4.00;4.00;;;;;26.70;18.77;98865.34;5993886;29;96573;-61
2023/05/10 11:28:21;;;;;;;;;3.80;3.80;;;;;26.46;18.74;98875.31;5996876;29;96538;-61
2023/05/10 11:31:26;;;;;;;;;4.00;4.00;;;;;26.74;20.42;98874.63;5996204;29;96397;-61
2023/05/10 11:34:33;;;;;;;;;5.00;5.00;;;;;26.90;18.84;98874.13;5984410;29;96895;-61
2023/05/10 11:37:40;;;;;;;;;4.80;4.00;;;;;26.16;19.66;98871.53;5995305;29;96363;-61
2023/05/10 11:40:44;;;;;;;;;4.00;4.00;;;;;25.83;20.76;98860.13;6000063;29;96317;-61
2023/05/10 11:43:48;;;;;;;;;3.20;3.00;;;;;25.15;20.96;98861.50;5999904;29;96305;-61
2023/05/10 11:46:53;;;;;;;;;2.00;2.00;;;;;25.12;21.92;98855.81;6000677;29;96267;-61
2023/05/10 11:49:58;;;;;;;;;3.20;3.00;;;;;25.57;21.45;98849.00;5999594;29;97063;-61
2023/05/10 11:53:01;;;;;;;;;5.00;5.00;;;;;25.80;20.78;98850.53;6000689;29;96291;-61
2023/05/10 11:56:06;;;;;;;;;4.00;3.00;;;;;26.23;20.93;98856.13;5999825;29;96370;-61
2023/05/10 11:59:09;;;;;;;;;4.80;4.80;;;;;26.03;20.37;98858.69;5995840;29;97845;-61
2023/05/10 12:02:13;;;;;;;;;4.00;4.00;;;;;25.80;21.37;98860.78;5989383;29;96358;-61
2023/05/10 12:05:19;;;;;;;;;3.00;3.00;;;;;25.75;22.01;98856.22;5997386;29;96888;-60
2023/05/10 12:08:24;;;;;;;;;3.00;3.00;;;;;25.89;21.15;98853.31;6022619;29;96321;-59
2023/05/10 12:11:29;;;;;;;;;2.25;2.25;;;;;25.95;21.03;98851.22;6023350;29;96163;-59
2023/05/10 12:14:35;;;;;;;;;5.00;5.00;;;;;26.01;21.49;98838.84;6011356;29;97111;-60
2023/05/10 12:17:40;;;;;;;;;4.25;4.25;;;;;26.24;21.41;98845.91;6023585;29;96337;-59
2023/05/10 12:20:46;;;;;;;;;4.00;4.00;;;;;26.65;21.45;98837.06;6000239;29;96446;-59
2023/05/10 12:23:52;;;;;;;;;4.20;4.00;;;;;26.82;21.10;98827.91;6022291;29;96275;-59
2023/05/10 12:26:55;;;;;;;;;4.00;4.00;;;;;26.45;20.50;98844.09;6022904;29;96464;-59
2023/05/10 12:30:21;;;;;;;;;3.00;3.00;;;;;26.60;21.57;98818.69;6020850;29;96466;-59
2023/05/10 12:33:25;;;;;;;;;3.60;3.00;;;;;26.90;20.75;98830.69;6022887;29;96333;-59
2023/05/10 12:36:29;;;;;;;;;4.00;4.00;;;;;26.89;20.66;98831.00;6022797;29;96768;-59
2023/05/10 12:39:40;;;;;;;;;4.00;4.00;;;;;27.06;20.29;98823.47;6022882;29;96372;-60
2023/05/10 12:42:45;;;;;;;;;3.00;3.00;;;;;27.09;21.15;98827.53;6022888;29;96754;-59
2023/05/10 12:45:48;;;;;;;;;4.00;4.00;;;;;27.20;20.73;98819.66;6022591;29;96211;-60
2023/05/10 12:48:54;;;;;;;;;3.00;3.00;;;;;27.11;20.21;98817.75;6023405;29;96311;-59
2023/05/10 12:52:12;;;;;;;;;5.00;4.00;;;;;27.00;19.45;98816.50;6021791;29;96284;-59
2023/05/10 12:55:16;;;;;;;;;3.00;3.00;;;;;26.43;20.22;98815.97;6023046;29;96310;-60
2023/05/10 12:58:19;;;;;;;;;2.67;2.67;;;;;26.14;20.91;98801.97;6022432;29;96735;-59
2023/05/10 13:01:37;;;;;;;;;4.00;4.00;;;;;26.19;20.75;98802.59;6011076;29;96428;-60
2023/05/10 13:04:41;;;;;;;;;3.40;3.40;;;;;25.93;21.21;98795.47;5999205;29;96466;-59
2023/05/10 13:07:46;;;;;;;;;5.00;4.00;;;;;25.74;21.71;98796.59;6023818;29;96509;-60
2023/05/10 13:10:49;;;;;;;;;4.00;4.00;;;;;25.68;22.05;98800.66;6022541;29;96320;-59
2023/05/10 13:13:53;;;;;;;;;3.40;3.00;;;;;25.45;22.53;98786.13;6022366;29;96940;-59
2023/05/10 13:16:56;;;;;;;;;4.00;4.00;;;;;25.28;21.83;98797.13;6022755;29;96632;-59
2023/05/10 13:19:59;;;;;;;;;4.00;4.00;;;;;25.10;21.87;98773.38;6023537;29;96362;-60
2023/05/10 13:23:04;;;;;;;;;4.40;3.40;;;;;25.12;21.99;98779.38;6023899;29;96318;-59
2023/05/10 13:26:07;;;;;;;;;5.00;4.00;;;;;25.19;22.19;98795.47;6023316;29;97723;-59
2023/05/10 13:29:11;;;;;;;;;4.00;3.40;;;;;25.10;22.51;98787.16;6022907;29;96309;-59
2023/05/10 13:32:14;;;;;;;;;3.25;3.25;;;;;25.15;22.35;98784.25;6023718;29;96685;-59
2023/05/10 13:35:17;;;;;;;;;3.00;3.00;;;;;25.15;22.23;98780.69;6022486;29;96399;-60
2023/05/10 13:38:22;;;;;;;;;4.40;4.40;;;;;25.19;22.69;98774.22;6020115;29;96637;-59
2023/05/10 13:41:25;;;;;;;;;5.00;4.00;;;;;25.39;22.10;98770.84;6022023;29;96864;-59
2023/05/10 13:44:28;;;;;;;;;5.00;4.00;;;;;24.77;21.99;98770.13;6010231;29;96585;-59
2023/05/10 13:47:31;;;;;;;;;4.00;3.20;;;;;25.12;22.19;98762.81;5996147;29;96349;-60
2023/05/10 13:50:35;;;;;;;;;4.80;4.00;;;;;24.73;22.81;98755.34;5997179;29;96287;-59
2023/05/10 13:53:39;;;;;;;;;4.40;4.00;;;;;24.96;22.83;98762.47;5996966;29;97712;-59
2023/05/10 13:56:43;;;;;;;;;5.00;4.00;;;;;25.40;22.33;98755.09;5996312;29;96364;-59
2023/05/10 13:59:46;;;;;;;;;6.00;6.00;;;;;25.62;22.32;98768.81;5996548;29;96404;-58
2023/05/10 14:02:50;;;;;;;;;5.00;4.00;;;;;25.50;22.20;98751.22;5996408;29;96327;-60
2023/05/10 14:05:53;;;;;;;;;3.00;3.00;;;;;25.33;21.71;98757.50;5997906;29;96786;-59
2023/05/10 14:08:57;;;;;;;;;4.00;4.00;;;;;25.09;22.10;98748.84;5999159;29;96348;-59
2023/05/10 14:12:01;;;;;;;;;5.00;4.00;;;;;24.99;22.19;98752.72;5996592;29;96931;-59
2023/05/10 14:15:06;;;;;;;;;5.00;4.00;;;;;25.04;22.75;98733.28;5998809;29;96519;-59
2023/05/10 14:18:09;;;;;;;;;3.00;3.00;;;;;25.06;22.77;98744.00;5999026;29;96377;-59
2023/05/10 14:21:13;;;;;;;;;6.00;5.00;;;;;24.69;23.09;98748.00;5998941;29;96316;-59
2023/05/10 14:24:18;;;;;;;;;4.80;4.80;;;;;24.36;23.01;98753.03;5976571;29;96316;-60